Morgan, Texas
Current Conditions -  °F | °C
As of 4:35 PM on Friday 24 Oct 2014 (Local Time) from KCPT Reporting Station
Clear Clear  
Wind Chill: 84°   Ceiling: Unl
Heat Index: 84°   Visibility: 10mi
Dew Point: 61°   Wind: 8mph
Humidity: 45%   Direction: 160°SSE
Pressure: 30.09"   Gusts: NA
Location:  32.02°N, 97.61°W
Report Text: KCPT 242135Z AUTO 16007KT 10SM CLR 29/16 A3009 RMK AO2
Loading
Personal Weather Stations






























Interactive Weather Map
Tropical Storm Tracking
New forecast layout! Learn more

10-Day Weather Forecast

Advertisements
Track Severe Weather on mobile